createdAt,value
2018-03-23T00:01:49.982Z,96410.48
2018-03-23T00:05:13.258Z,96406.80
2018-03-23T00:08:36.631Z,96397.05
2018-03-23T00:11:59.917Z,96392.86
2018-03-23T00:15:23.182Z,96386.19
2018-03-23T00:18:46.520Z,96390.30
2018-03-23T00:22:09.835Z,96382.61
2018-03-23T00:25:33.123Z,96383.05
2018-03-23T00:28:56.396Z,96383.17
2018-03-23T00:32:19.664Z,96374.32
2018-03-23T00:35:43.694Z,96373.86
2018-03-23T00:39:06.974Z,96373.02
2018-03-23T00:42:30.260Z,96371.31
2018-03-23T00:45:53.539Z,96364.34
2018-03-23T00:49:16.850Z,96370.24
2018-03-23T00:52:40.129Z,96360.11
2018-03-23T00:56:03.398Z,96360.15
2018-03-23T00:59:26.689Z,96350.87
2018-03-23T01:02:49.970Z,96347.00
2018-03-23T01:06:13.243Z,96352.38
2018-03-23T01:09:36.530Z,96349.61
2018-03-23T01:12:59.834Z,96341.81
2018-03-23T01:16:23.137Z,96349.31
2018-03-23T01:19:46.470Z,96340.75
2018-03-23T01:23:09.744Z,96333.58
2018-03-23T01:26:33.016Z,96332.08
2018-03-23T01:29:57.118Z,96333.13
2018-03-23T01:33:21.208Z,96323.55
2018-03-23T01:36:44.474Z,96319.95
2018-03-23T01:40:07.774Z,96319.08
2018-03-23T01:43:31.067Z,96313.38
2018-03-23T01:46:54.386Z,96314.06
2018-03-23T01:50:18.431Z,96306.25
2018-03-23T01:53:45.596Z,96303.28
2018-03-23T01:57:08.919Z,96297.86
2018-03-23T02:00:32.199Z,96299.70
2018-03-23T02:03:55.530Z,96300.20
2018-03-23T02:07:18.853Z,96301.52
2018-03-23T02:10:42.193Z,96296.92
2018-03-23T02:14:06.289Z,96292.20
2018-03-23T02:17:29.562Z,96289.34
2018-03-23T02:20:52.854Z,96281.86
2018-03-23T02:24:16.125Z,96283.33
2018-03-23T02:27:39.398Z,96276.59
2018-03-23T02:31:03.505Z,96267.45
2018-03-23T02:34:26.789Z,96265.14
2018-03-23T02:37:50.087Z,96269.66
2018-03-23T02:41:13.351Z,96269.61
2018-03-23T02:44:36.646Z,96269.55
2018-03-23T02:47:59.931Z,96267.28
2018-03-23T02:51:23.213Z,96258.84
2018-03-23T02:54:46.511Z,96267.08
2018-03-23T02:58:09.768Z,96259.50
2018-03-23T03:01:33.958Z,96264.99
2018-03-23T03:04:57.298Z,96256.44
2018-03-23T03:08:20.575Z,96255.77
2018-03-23T03:11:43.864Z,96259.51
2018-03-23T03:15:07.145Z,96257.02
2018-03-23T03:18:30.430Z,96248.55
2018-03-23T03:21:53.722Z,96257.82
2018-03-23T03:25:17.026Z,96245.76
2018-03-23T03:28:40.348Z,96239.41
2018-03-23T03:32:03.703Z,96236.14
2018-03-23T03:35:27.003Z,96232.45
2018-03-23T03:38:50.286Z,96231.28
2018-03-23T03:42:13.568Z,96232.12
2018-03-23T03:45:36.834Z,96230.98
2018-03-23T03:49:00.141Z,96219.45
2018-03-23T03:52:23.420Z,96216.99
2018-03-23T03:55:46.689Z,96222.63
2018-03-23T03:59:10.001Z,96210.16
2018-03-23T04:02:33.258Z,96222.48
2018-03-23T04:05:56.561Z,96216.56
2018-03-23T04:09:19.843Z,96218.73
2018-03-23T04:12:43.129Z,96219.02
2018-03-23T04:16:06.416Z,96220.92
2018-03-23T04:19:29.719Z,96216.74
2018-03-23T04:22:52.986Z,96210.00
2018-03-23T04:26:16.252Z,96208.86
2018-03-23T04:29:39.540Z,96211.29
2018-03-23T04:33:02.829Z,96210.61
2018-03-23T04:36:26.109Z,96208.61
2018-03-23T04:39:49.412Z,96205.40
2018-03-23T04:43:12.674Z,96200.44
2018-03-23T04:46:35.953Z,96203.08
2018-03-23T04:50:00.045Z,96192.59
2018-03-23T04:53:23.326Z,96191.44
2018-03-23T04:56:46.616Z,96187.47
2018-03-23T05:00:09.900Z,96194.11
2018-03-23T05:03:33.181Z,96182.83
2018-03-23T05:06:56.477Z,96181.11
2018-03-23T05:10:19.751Z,96175.06
2018-03-23T05:13:43.027Z,96175.41
2018-03-23T05:17:07.332Z,96179.20
2018-03-23T05:20:30.651Z,96180.03
2018-03-23T05:23:53.983Z,96184.84
2018-03-23T05:27:18.138Z,96189.67
2018-03-23T05:30:42.224Z,96189.25
2018-03-23T05:34:05.496Z,96197.16
2018-03-23T05:37:28.797Z,96191.36
2018-03-23T05:40:52.882Z,96194.84
2018-03-23T05:44:16.176Z,96189.97
2018-03-23T05:47:39.554Z,96187.18
2018-03-23T05:51:03.604Z,96181.72
2018-03-23T05:54:26.900Z,96180.14
2018-03-23T05:57:50.538Z,96181.51
2018-03-23T06:01:13.840Z,96178.96
2018-03-23T06:04:37.192Z,96176.55
2018-03-23T06:08:00.496Z,96182.41
2018-03-23T06:11:23.843Z,96189.14
2018-03-23T06:14:47.186Z,96179.69
2018-03-23T06:18:10.460Z,96169.83
2018-03-23T06:21:33.744Z,96170.83
2018-03-23T06:24:57.032Z,96165.20
2018-03-23T06:28:20.304Z,96161.94
2018-03-23T06:31:43.793Z,96154.83
2018-03-23T06:35:07.922Z,96154.19
2018-03-23T06:38:31.272Z,96149.65
2018-03-23T06:41:54.543Z,96146.98
2018-03-23T06:45:17.828Z,96147.36
2018-03-23T06:48:41.095Z,96147.09
2018-03-23T06:52:04.385Z,96148.47
2018-03-23T06:55:27.694Z,96145.14
2018-03-23T06:58:50.962Z,96143.85
2018-03-23T07:02:14.243Z,96153.73
2018-03-23T07:05:37.504Z,96150.75
2018-03-23T07:09:01.528Z,96148.25
2018-03-23T07:12:24.830Z,96158.36
2018-03-23T07:15:48.105Z,96149.84
2018-03-23T07:19:11.382Z,96147.28
2018-03-23T07:22:34.691Z,96146.70
2018-03-23T07:25:57.974Z,96144.00
2018-03-23T07:29:21.234Z,96144.14
2018-03-23T07:32:44.500Z,96143.04
2018-03-23T07:36:08.560Z,96144.88
2018-03-23T07:39:31.856Z,96143.30
2018-03-23T07:42:55.137Z,96155.08
2018-03-23T07:46:18.439Z,96148.73
2018-03-23T07:49:42.499Z,96147.88
2018-03-23T07:53:05.770Z,96141.49
2018-03-23T07:56:29.044Z,96146.05
2018-03-23T07:59:52.311Z,96141.64
2018-03-23T08:03:16.333Z,96142.21
2018-03-23T08:06:39.654Z,96137.27
2018-03-23T08:10:02.923Z,96128.64
2018-03-23T08:13:26.339Z,96127.45
2018-03-23T08:16:49.632Z,96125.20
2018-03-23T08:20:12.892Z,96118.38
2018-03-23T08:23:36.915Z,96115.05
2018-03-23T08:27:00.183Z,96115.80
2018-03-23T08:30:24.203Z,96108.89
2018-03-23T08:33:47.489Z,96104.09
2018-03-23T08:37:10.770Z,96095.46
2018-03-23T08:40:34.905Z,96090.80
2018-03-23T08:43:58.920Z,96085.68
2018-03-23T08:47:22.971Z,96083.89
2018-03-23T08:50:46.330Z,96087.48
2018-03-23T08:54:09.612Z,96085.02
2018-03-23T08:57:32.880Z,96079.48
2018-03-23T09:00:56.154Z,96074.82
2018-03-23T09:04:19.426Z,96072.35
2018-03-23T09:07:43.474Z,96068.59
2018-03-23T09:11:06.738Z,96063.20
2018-03-23T09:14:30.741Z,96061.88
2018-03-23T09:17:54.862Z,96064.41
2018-03-23T09:21:18.246Z,96057.77
2018-03-23T09:24:41.603Z,96052.33
2018-03-23T09:28:05.024Z,96051.44
2018-03-23T09:31:28.396Z,96042.27
2018-03-23T09:34:52.445Z,96043.47
2018-03-23T09:38:15.723Z,96036.81
2018-03-23T09:41:38.997Z,96033.74
2018-03-23T09:45:02.273Z,96028.15
2018-03-23T09:48:25.553Z,96026.31
2018-03-23T09:51:49.819Z,96015.00
2018-03-23T09:55:13.116Z,96018.70
2018-03-23T09:58:36.407Z,96008.33
2018-03-23T10:02:00.439Z,96007.13
2018-03-23T10:05:23.754Z,95998.95
2018-03-23T10:08:47.220Z,95993.67
2018-03-23T10:12:11.402Z,95986.61
2018-03-23T10:15:35.377Z,95984.83
2018-03-23T10:18:59.547Z,95978.63
2018-03-23T10:22:25.039Z,95971.69
2018-03-23T10:25:49.671Z,95972.52
2018-03-23T10:29:16.061Z,95967.64
2018-03-23T10:32:40.039Z,95963.00
2018-03-23T10:36:04.034Z,95955.29
2018-03-23T10:39:28.090Z,95949.14
2018-03-23T10:42:51.372Z,95946.74
2018-03-23T10:46:14.639Z,95945.31
2018-03-23T10:49:37.912Z,95936.72
2018-03-23T10:53:01.236Z,95932.53
2018-03-23T10:56:26.118Z,95924.27
2018-03-23T10:59:49.850Z,95924.20
2018-03-23T11:03:13.939Z,95918.77
2018-03-23T11:06:38.770Z,95913.66
2018-03-23T11:10:02.422Z,95913.14
2018-03-23T11:13:25.979Z,95906.06
2018-03-23T11:16:50.030Z,95903.75
2018-03-23T11:20:13.440Z,95885.97
2018-03-23T11:23:39.816Z,95884.25
2018-03-23T11:27:03.960Z,95883.56
2018-03-23T11:30:27.256Z,95882.57
2018-03-23T11:33:52.579Z,95869.69
2018-03-23T11:37:17.595Z,95866.36
2018-03-23T11:40:40.983Z,95861.52
2018-03-23T11:44:04.422Z,95862.34
2018-03-23T11:51:06.701Z,95850.34
2018-03-23T11:54:30.065Z,95853.08
2018-03-23T11:57:53.573Z,95843.70
2018-03-23T12:01:16.875Z,95834.70
2018-03-23T12:04:40.190Z,95824.69
2018-03-23T12:08:03.524Z,95816.69
2018-03-23T12:11:27.808Z,95809.69
2018-03-23T12:14:51.138Z,95810.80
2018-03-23T12:18:14.436Z,95810.34
2018-03-23T12:21:37.747Z,95798.09
2018-03-23T12:25:01.860Z,95793.69
2018-03-23T12:28:25.256Z,95793.34
2018-03-23T12:31:48.577Z,95781.80
2018-03-23T12:35:11.873Z,95784.31
2018-03-23T12:38:35.198Z,95778.86
2018-03-23T12:41:59.266Z,95774.08
2018-03-23T12:45:23.348Z,95764.58
2018-03-23T12:48:46.763Z,95755.47
2018-03-23T12:52:10.101Z,95745.28
2018-03-23T12:55:33.414Z,95731.77
2018-03-23T12:58:56.738Z,95729.46
2018-03-23T13:02:20.068Z,95714.25
2018-03-23T13:05:43.423Z,95714.27
2018-03-23T13:09:06.722Z,95703.66
2018-03-23T13:12:30.059Z,95703.08
2018-03-23T13:15:53.395Z,95704.09
2018-03-23T13:19:16.757Z,95700.73
2018-03-23T13:22:40.111Z,95703.36
2018-03-23T13:26:03.370Z,95701.22
2018-03-23T13:29:26.647Z,95687.94
2018-03-23T13:32:50.696Z,95685.70
2018-03-23T13:36:13.981Z,95679.75
2018-03-23T13:39:37.323Z,95668.28
2018-03-23T13:43:00.620Z,95669.69
2018-03-23T13:46:23.946Z,95667.35
2018-03-23T13:49:47.395Z,95664.69
2018-03-23T13:53:10.717Z,95657.83
2018-03-23T13:56:34.772Z,95655.14
2018-03-23T13:59:58.924Z,95649.94
2018-03-23T14:03:22.279Z,95634.53
2018-03-23T14:06:45.556Z,95633.91
2018-03-23T14:10:08.863Z,95623.75
2018-03-23T14:13:32.136Z,95621.00
2018-03-23T14:16:55.511Z,95616.97
2018-03-23T14:20:18.871Z,95603.43
2018-03-23T14:23:42.911Z,95609.08
2018-03-23T14:27:06.192Z,95606.80
2018-03-23T14:30:29.497Z,95601.51
2018-03-23T14:33:52.789Z,95600.53
2018-03-23T14:37:16.076Z,95594.84
2018-03-23T14:40:39.350Z,95598.17
2018-03-23T14:44:02.621Z,95589.97
2018-03-23T14:47:26.854Z,95590.06
2018-03-23T14:50:50.177Z,95586.50
2018-03-23T14:54:13.458Z,95580.48
2018-03-23T14:57:36.734Z,95579.39
2018-03-23T15:01:00.020Z,95571.13
2018-03-23T15:04:23.319Z,95570.08
2018-03-23T15:07:47.350Z,95563.89
2018-03-23T15:11:10.634Z,95559.20
2018-03-23T15:14:33.931Z,95556.91
2018-03-23T15:17:57.203Z,95556.03
2018-03-23T15:21:20.476Z,95542.53
2018-03-23T15:24:44.523Z,95538.19
2018-03-23T15:28:07.786Z,95527.36
2018-03-23T15:31:31.073Z,95529.59
2018-03-23T15:34:54.416Z,95527.58
2018-03-23T15:38:18.449Z,95521.34
2018-03-23T15:41:41.843Z,95534.92
2018-03-23T15:45:05.127Z,95521.98
2018-03-23T15:48:29.256Z,95511.70
2018-03-23T15:51:52.619Z,95514.48
2018-03-23T15:55:15.921Z,95511.33
2018-03-23T15:58:39.187Z,95512.14
2018-03-23T16:02:02.484Z,95504.13
2018-03-23T16:05:25.893Z,95501.88
2018-03-23T16:08:49.183Z,95504.27
2018-03-23T16:12:12.519Z,95499.11
2018-03-23T16:15:35.899Z,95501.48
2018-03-23T16:18:59.192Z,95494.92
2018-03-23T16:22:22.451Z,95490.66
2018-03-23T16:25:45.748Z,95493.11
2018-03-23T16:29:09.005Z,95493.59
2018-03-23T16:32:32.311Z,95490.84
2018-03-23T16:35:55.705Z,95491.98
2018-03-23T16:39:20.006Z,95491.76
2018-03-23T16:42:45.278Z,95487.86
2018-03-23T16:46:08.712Z,95487.52
2018-03-23T16:49:32.276Z,95488.50
2018-03-23T16:52:55.818Z,95484.27
2018-03-23T16:56:19.330Z,95487.99
2018-03-23T16:59:43.457Z,95485.94
2018-03-23T17:03:07.156Z,95491.77
2018-03-23T17:06:30.630Z,95486.97
2018-03-23T17:09:54.861Z,95484.15
2018-03-23T17:13:19.556Z,95480.53
2018-03-23T17:16:43.338Z,95481.85
2018-03-23T17:20:08.154Z,95482.57
2018-03-23T17:23:32.097Z,95487.92
2018-03-23T17:26:55.681Z,95483.50
2018-03-23T17:30:19.177Z,95485.66
2018-03-23T17:33:42.598Z,95480.09
2018-03-23T17:37:08.949Z,95471.84
2018-03-23T17:40:33.233Z,95475.64
2018-03-23T17:43:58.784Z,95471.88
2018-03-23T17:47:22.438Z,95480.03
2018-03-23T17:50:45.930Z,95481.06
2018-03-23T17:54:09.472Z,95481.56
2018-03-23T17:57:33.110Z,95474.05
2018-03-23T18:00:56.533Z,95478.51
2018-03-23T18:04:19.984Z,95479.86
2018-03-23T18:07:43.306Z,95475.33
2018-03-23T18:11:06.639Z,95471.30
2018-03-23T18:14:30.708Z,95478.03
2018-03-23T18:17:54.015Z,95481.55
2018-03-23T18:21:18.095Z,95475.97
2018-03-23T18:24:43.238Z,95480.28
2018-03-23T18:28:06.871Z,95481.40
2018-03-23T18:31:31.003Z,95472.70
2018-03-23T18:34:55.157Z,95477.30
2018-03-23T18:38:18.608Z,95470.95
2018-03-23T18:41:41.929Z,95475.59
2018-03-23T18:45:05.283Z,95471.54
2018-03-23T18:48:28.651Z,95472.13
2018-03-23T18:51:52.035Z,95467.30
2018-03-23T18:55:15.460Z,95464.73
2018-03-23T18:58:39.548Z,95466.73
2018-03-23T19:02:02.866Z,95468.00
2018-03-23T19:05:26.300Z,95470.12
2018-03-23T19:08:49.803Z,95463.18
2018-03-23T19:12:15.105Z,95464.06
2018-03-23T19:15:38.466Z,95461.78
2018-03-23T19:19:01.772Z,95464.00
2018-03-23T19:22:26.367Z,95457.98
2018-03-23T19:25:49.685Z,95456.52
2018-03-23T19:29:13.803Z,95446.22
2018-03-23T19:32:37.391Z,95445.75
2018-03-23T19:36:01.507Z,95441.53
2018-03-23T19:39:24.991Z,95435.89
2018-03-23T19:42:48.301Z,95428.69
2018-03-23T19:46:11.616Z,95423.52
2018-03-23T19:49:35.803Z,95430.45
2018-03-23T19:52:59.235Z,95423.26
2018-03-23T19:56:22.607Z,95415.08
2018-03-23T19:59:45.953Z,95417.00
2018-03-23T20:03:09.544Z,95424.23
2018-03-23T20:06:33.945Z,95422.63
2018-03-23T20:09:58.608Z,95421.49
2018-03-23T20:13:22.827Z,95417.64
2018-03-23T20:16:46.376Z,95416.53
2018-03-23T20:20:15.159Z,95411.13
2018-03-23T20:23:38.461Z,95417.36
2018-03-23T20:30:59.639Z,95411.02
2018-03-23T20:34:24.136Z,95405.68
2018-03-23T20:37:48.285Z,95395.59
2018-03-23T20:41:12.645Z,95394.03
2018-03-23T20:44:39.506Z,95390.70
2018-03-23T20:48:03.655Z,95389.59
2018-03-23T20:51:31.336Z,95392.29
2018-03-23T20:54:54.634Z,95384.10
2018-03-23T20:58:17.916Z,95385.44
2018-03-23T21:01:41.383Z,95381.66
2018-03-23T21:05:05.524Z,95383.80
2018-03-23T21:08:29.593Z,95370.86
2018-03-23T21:11:53.244Z,95369.14
2018-03-23T21:15:16.771Z,95371.04
2018-03-23T21:18:40.313Z,95365.83
2018-03-23T21:22:03.595Z,95370.51
2018-03-23T21:25:26.934Z,95374.37
2018-03-23T21:28:50.375Z,95369.33
2018-03-23T21:32:13.731Z,95360.02
2018-03-23T21:35:37.231Z,95356.17
2018-03-23T21:39:00.575Z,95358.34
2018-03-23T21:42:23.887Z,95354.66
2018-03-23T21:45:47.147Z,95351.75
2018-03-23T21:49:10.447Z,95348.76
2018-03-23T21:52:33.808Z,95348.49
2018-03-23T21:55:57.157Z,95345.38
2018-03-23T21:59:20.539Z,95336.41
2018-03-23T22:02:44.669Z,95347.50
2018-03-23T22:06:08.029Z,95335.73
2018-03-23T22:09:31.481Z,95328.23
2018-03-23T22:12:55.607Z,95320.41
2018-03-23T22:16:18.946Z,95315.73
2018-03-23T22:19:42.219Z,95312.86
2018-03-23T22:23:06.312Z,95307.06
2018-03-23T22:26:30.358Z,95302.44
2018-03-23T22:29:53.625Z,95301.62
2018-03-23T22:33:17.524Z,95297.95
2018-03-23T22:36:41.859Z,95295.31
2018-03-23T22:40:06.485Z,95289.25
2018-03-23T22:43:29.930Z,95284.63
2018-03-23T22:46:53.321Z,95277.73
2018-03-23T22:50:16.727Z,95276.54
2018-03-23T22:53:40.991Z,95268.02
2018-03-23T22:57:05.069Z,95266.45
2018-03-23T23:00:28.552Z,95262.73
2018-03-23T23:03:52.649Z,95263.14
2018-03-23T23:07:16.237Z,95259.52
2018-03-23T23:10:39.492Z,95256.25
2018-03-23T23:14:03.601Z,95257.06
2018-03-23T23:17:26.886Z,95249.39
2018-03-23T23:20:50.152Z,95252.63
2018-03-23T23:24:13.644Z,95236.57
2018-03-23T23:27:37.775Z,95238.48
2018-03-23T23:31:01.082Z,95235.76
2018-03-23T23:34:25.334Z,95229.99
2018-03-23T23:37:48.687Z,95226.86
2018-03-23T23:41:11.998Z,95221.59
2018-03-23T23:44:35.319Z,95214.66
2018-03-23T23:47:58.626Z,95209.48
2018-03-23T23:51:21.879Z,95205.52
2018-03-23T23:54:45.939Z,95201.31
2018-03-23T23:58:09.270Z,95200.30
